createdAt,value
2023-05-08T00:00:39.093Z,19.56
2023-05-08T00:02:57.712Z,19.59
2023-05-08T00:05:08.643Z,19.63
2023-05-08T00:07:17.991Z,19.66
2023-05-08T00:09:27.374Z,19.67
2023-05-08T00:11:36.839Z,19.70
2023-05-08T00:13:46.593Z,19.75
2023-05-08T00:15:55.766Z,19.77
2023-05-08T00:18:05.273Z,19.79
2023-05-08T00:20:16.617Z,19.80
2023-05-08T00:22:26.072Z,19.82
2023-05-08T00:24:35.601Z,19.85
2023-05-08T00:26:44.861Z,19.87
2023-05-08T00:28:54.035Z,19.87
2023-05-08T00:31:05.257Z,19.86
2023-05-08T00:33:14.507Z,19.86
2023-05-08T00:35:24.113Z,19.85
2023-05-08T00:37:33.189Z,19.80
2023-05-08T00:39:42.633Z,19.81
2023-05-08T00:41:51.843Z,19.83
2023-05-08T00:44:01.982Z,19.84
2023-05-08T00:46:11.941Z,19.86
2023-05-08T00:48:21.362Z,19.86
2023-05-08T00:50:30.975Z,19.87
2023-05-08T00:52:41.207Z,19.88
2023-05-08T00:54:51.068Z,19.87
2023-05-08T00:57:00.266Z,19.86
2023-05-08T00:59:13.631Z,19.84
2023-05-08T01:01:23.080Z,19.81
2023-05-08T01:03:32.900Z,19.78
2023-05-08T01:05:42.665Z,19.75
2023-05-08T01:07:52.288Z,19.73
2023-05-08T01:10:01.654Z,19.72
2023-05-08T01:12:19.460Z,19.71
2023-05-08T01:14:51.787Z,19.70
2023-05-08T01:17:12.035Z,19.71
2023-05-08T01:20:00.357Z,19.69
2023-05-08T01:22:34.126Z,19.66
2023-05-08T01:25:09.701Z,19.63
2023-05-08T01:27:57.470Z,19.60
2023-05-08T01:30:33.898Z,19.55
2023-05-08T01:32:45.590Z,19.46
2023-05-08T01:35:05.379Z,19.39
2023-05-08T01:37:18.969Z,19.34
2023-05-08T01:39:38.614Z,19.29
2023-05-08T01:41:56.721Z,19.27
2023-05-08T01:44:15.921Z,19.25
2023-05-08T01:46:29.984Z,19.23
2023-05-08T01:48:46.384Z,19.22
2023-05-08T01:51:02.787Z,19.23
2023-05-08T01:53:18.767Z,19.24
2023-05-08T01:55:32.284Z,19.24
2023-05-08T01:57:48.525Z,19.24
2023-05-08T01:59:59.779Z,19.22
2023-05-08T02:02:11.528Z,19.20
2023-05-08T02:04:22.133Z,19.17
2023-05-08T02:06:33.884Z,19.16
2023-05-08T02:08:42.908Z,19.14
2023-05-08T02:10:54.179Z,19.12
2023-05-08T02:13:06.755Z,19.08
2023-05-08T02:15:18.167Z,19.07
2023-05-08T02:17:28.919Z,19.05
2023-05-08T02:19:41.717Z,19.01
2023-05-08T02:21:53.389Z,18.98
2023-05-08T02:24:01.529Z,18.95
2023-05-08T02:26:14.059Z,18.90
2023-05-08T02:28:25.164Z,18.84
2023-05-08T02:30:35.346Z,18.78
2023-05-08T02:32:48.441Z,18.73
2023-05-08T02:35:03.677Z,18.71
2023-05-08T02:37:16.194Z,18.67
2023-05-08T02:39:31.684Z,18.64
2023-05-08T02:41:46.814Z,18.60
2023-05-08T02:43:57.945Z,18.56
2023-05-08T02:46:16.365Z,18.52
2023-05-08T02:48:30.708Z,18.42
2023-05-08T02:50:47.452Z,18.39
2023-05-08T02:53:05.029Z,18.35
2023-05-08T02:55:25.298Z,18.31
2023-05-08T02:57:41.909Z,18.27
2023-05-08T02:59:58.985Z,18.22
2023-05-08T03:02:24.698Z,18.18
2023-05-08T03:04:41.604Z,18.13
2023-05-08T03:06:52.328Z,18.05
2023-05-08T03:09:05.414Z,18.01
2023-05-08T03:11:22.151Z,17.94
2023-05-08T03:13:33.707Z,17.90
2023-05-08T03:15:48.512Z,17.85
2023-05-08T03:18:00.433Z,17.81
2023-05-08T03:20:14.128Z,17.77
2023-05-08T03:22:26.497Z,17.73
2023-05-08T03:24:39.732Z,17.69
2023-05-08T03:26:49.648Z,17.65
2023-05-08T03:29:01.064Z,17.61
2023-05-08T03:31:17.148Z,17.56
2023-05-08T03:33:28.279Z,17.51
2023-05-08T03:35:39.764Z,17.46
2023-05-08T03:37:51.830Z,17.41
2023-05-08T03:40:01.769Z,17.36
2023-05-08T03:42:21.683Z,17.33
2023-05-08T03:44:32.935Z,17.28
2023-05-08T03:46:44.163Z,17.24
2023-05-08T03:48:55.014Z,17.18
2023-05-08T03:51:06.122Z,17.15
2023-05-08T03:53:18.066Z,17.09
2023-05-08T03:55:28.145Z,17.07
2023-05-08T03:57:42.343Z,17.03
2023-05-08T04:00:00.930Z,16.98
2023-05-08T04:02:21.648Z,16.93
2023-05-08T04:04:40.357Z,16.88
2023-05-08T04:06:58.457Z,16.84
2023-05-08T04:09:29.105Z,16.79
2023-05-08T04:11:44.038Z,16.74
2023-05-08T04:14:02.667Z,16.71
2023-05-08T04:16:19.552Z,16.67
2023-05-08T04:18:32.878Z,16.62
2023-05-08T04:20:44.553Z,16.58
2023-05-08T04:22:59.579Z,16.52
2023-05-08T04:25:11.403Z,16.46
2023-05-08T04:27:21.497Z,16.40
2023-05-08T04:29:31.409Z,16.36
2023-05-08T04:31:42.370Z,16.32
2023-05-08T04:33:52.019Z,16.28
2023-05-08T04:36:03.806Z,16.24
2023-05-08T04:38:13.799Z,16.20
2023-05-08T04:40:23.607Z,16.14
2023-05-08T04:42:33.869Z,16.09
2023-05-08T04:44:43.344Z,16.04
2023-05-08T04:46:52.624Z,15.98
2023-05-08T04:49:01.767Z,15.93
2023-05-08T04:51:11.384Z,15.88
2023-05-08T04:53:21.365Z,15.84
2023-05-08T04:55:31.189Z,15.80
2023-05-08T04:57:40.463Z,15.75
2023-05-08T04:59:49.782Z,15.71
2023-05-08T05:01:59.306Z,15.68
2023-05-08T05:04:08.886Z,15.62
2023-05-08T05:06:18.338Z,15.59
2023-05-08T05:08:27.632Z,15.56
2023-05-08T05:10:37.532Z,15.52
2023-05-08T05:12:47.359Z,15.49
2023-05-08T05:14:57.166Z,15.47
2023-05-08T05:17:06.601Z,15.43
2023-05-08T05:19:15.817Z,15.40
2023-05-08T05:21:25.351Z,15.35
2023-05-08T05:23:35.204Z,15.33
2023-05-08T05:25:44.346Z,15.30
2023-05-08T05:27:53.496Z,15.25
2023-05-08T05:30:02.750Z,15.20
2023-05-08T05:32:13.339Z,15.15
2023-05-08T05:34:22.829Z,15.12
2023-05-08T05:36:31.978Z,15.07
2023-05-08T05:38:41.809Z,15.02
2023-05-08T05:40:51.312Z,14.97
2023-05-08T05:43:00.564Z,14.94
2023-05-08T05:45:12.214Z,14.89
2023-05-08T05:47:21.846Z,14.85
2023-05-08T05:49:31.272Z,14.81
2023-05-08T05:51:40.713Z,14.78
2023-05-08T05:53:51.085Z,14.74
2023-05-08T05:56:00.686Z,14.71
2023-05-08T05:58:09.807Z,14.67
2023-05-08T06:00:21.542Z,14.60
2023-05-08T06:02:34.241Z,14.53
2023-05-08T06:04:43.922Z,14.47
2023-05-08T06:06:53.024Z,14.41
2023-05-08T06:09:02.212Z,14.33
2023-05-08T06:11:11.727Z,14.23
2023-05-08T06:13:21.328Z,14.15
2023-05-08T06:15:30.682Z,14.10
2023-05-08T06:17:39.976Z,14.06
2023-05-08T06:19:50.875Z,14.03
2023-05-08T06:22:00.001Z,14.02
2023-05-08T06:24:10.174Z,13.99
2023-05-08T06:26:21.527Z,13.96
2023-05-08T06:28:29.884Z,13.93
2023-05-08T06:30:39.156Z,13.89
2023-05-08T06:32:48.526Z,13.84
2023-05-08T06:34:57.951Z,13.81
2023-05-08T06:37:07.091Z,13.78
2023-05-08T06:39:16.576Z,13.75
2023-05-08T06:41:25.705Z,13.71
2023-05-08T06:43:35.017Z,13.69
2023-05-08T06:45:45.084Z,13.66
2023-05-08T06:47:54.238Z,13.64
2023-05-08T06:50:03.994Z,13.61
2023-05-08T06:52:13.430Z,13.57
2023-05-08T06:54:22.969Z,13.54
2023-05-08T06:56:32.076Z,13.51
2023-05-08T06:58:41.171Z,13.47
2023-05-08T07:00:50.510Z,13.44
2023-05-08T07:02:59.667Z,13.42
2023-05-08T07:05:10.642Z,13.38
2023-05-08T07:07:20.090Z,13.34
2023-05-08T07:09:29.521Z,13.29
2023-05-08T07:11:38.976Z,13.26
2023-05-08T07:13:49.006Z,13.22
2023-05-08T07:15:58.227Z,13.20
2023-05-08T07:18:07.695Z,13.18
2023-05-08T07:20:17.266Z,13.13
2023-05-08T07:22:26.507Z,13.08
2023-05-08T07:24:36.508Z,13.01
2023-05-08T07:26:45.940Z,12.98
2023-05-08T07:28:55.352Z,12.92
2023-05-08T07:31:08.523Z,12.86
2023-05-08T07:33:17.925Z,12.80
2023-05-08T07:35:27.309Z,12.75
2023-05-08T07:37:36.611Z,12.71
2023-05-08T07:39:47.823Z,12.67
2023-05-08T07:41:56.937Z,12.62
2023-05-08T07:44:06.158Z,12.56
2023-05-08T07:46:21.294Z,12.52
2023-05-08T07:48:30.520Z,12.46
2023-05-08T07:50:39.703Z,12.40
2023-05-08T07:52:51.541Z,12.33
2023-05-08T07:55:01.251Z,12.29
2023-05-08T07:57:10.489Z,12.22
2023-05-08T07:59:19.812Z,12.17
2023-05-08T08:01:28.956Z,12.11
2023-05-08T08:03:38.209Z,12.08
2023-05-08T08:05:47.714Z,12.02
2023-05-08T08:07:56.761Z,11.93
2023-05-08T08:10:08.261Z,11.88
2023-05-08T08:12:17.738Z,11.83
2023-05-08T08:14:26.879Z,11.77
2023-05-08T08:16:36.106Z,11.72
2023-05-08T08:18:45.509Z,11.67
2023-05-08T08:20:54.620Z,11.62
2023-05-08T08:23:04.090Z,11.58
2023-05-08T08:25:14.754Z,11.53
2023-05-08T08:27:24.103Z,11.50
2023-05-08T08:29:33.746Z,11.47
2023-05-08T08:31:43.091Z,11.44
2023-05-08T08:33:52.718Z,11.39
2023-05-08T08:36:01.837Z,11.33
2023-05-08T08:38:10.892Z,11.28
2023-05-08T08:40:20.286Z,11.25
2023-05-08T08:42:29.378Z,11.22
2023-05-08T08:44:39.974Z,11.18
2023-05-08T08:46:54.334Z,11.16
2023-05-08T08:49:09.214Z,11.12
2023-05-08T08:51:26.451Z,11.08
2023-05-08T08:53:44.808Z,11.06
2023-05-08T08:55:57.601Z,11.02
2023-05-08T08:58:16.437Z,10.99
2023-05-08T09:00:30.202Z,10.96
2023-05-08T09:02:39.925Z,10.94
2023-05-08T09:04:51.113Z,10.88
2023-05-08T09:07:00.168Z,10.86
2023-05-08T09:09:09.301Z,10.80
2023-05-08T09:11:18.654Z,10.77
2023-05-08T09:13:27.954Z,10.71
2023-05-08T09:15:37.303Z,10.67
2023-05-08T09:17:46.817Z,10.64
2023-05-08T09:19:56.586Z,10.60
2023-05-08T09:22:09.600Z,10.57
2023-05-08T09:24:18.781Z,10.53
2023-05-08T09:26:37.035Z,10.49
2023-05-08T09:28:46.526Z,10.46
2023-05-08T09:30:59.260Z,10.41
2023-05-08T09:33:06.664Z,10.40
2023-05-08T09:35:16.430Z,10.39
2023-05-08T09:37:26.673Z,10.36
2023-05-08T09:39:35.977Z,10.33
2023-05-08T09:42:01.071Z,10.31
2023-05-08T09:44:10.555Z,10.27
2023-05-08T09:46:29.111Z,10.24
2023-05-08T09:48:46.202Z,10.20
2023-05-08T09:51:09.312Z,10.17
2023-05-08T09:53:18.687Z,10.14
2023-05-08T09:55:28.085Z,10.11
2023-05-08T09:57:39.693Z,10.07
2023-05-08T09:59:49.205Z,10.06
2023-05-08T10:02:18.592Z,10.03
2023-05-08T10:04:38.202Z,10.01
2023-05-08T10:07:07.124Z,9.98
2023-05-08T10:09:28.895Z,9.97
2023-05-08T10:12:05.755Z,9.97
2023-05-08T10:14:20.866Z,9.97
2023-05-08T10:16:52.188Z,9.97
2023-05-08T10:19:22.252Z,9.95
2023-05-08T10:21:52.370Z,9.94
2023-05-08T10:24:23.855Z,9.95
2023-05-08T10:27:07.485Z,9.95
2023-05-08T10:29:54.021Z,9.94
2023-05-08T10:32:25.266Z,9.90
2023-05-08T10:34:43.372Z,9.87
2023-05-08T10:37:13.657Z,9.82
2023-05-08T10:39:44.696Z,9.77
2023-05-08T10:42:15.375Z,9.73
2023-05-08T10:44:33.644Z,9.71
2023-05-08T10:47:02.041Z,9.66
2023-05-08T10:49:22.216Z,9.61
2023-05-08T10:51:49.375Z,9.56
2023-05-08T10:54:29.254Z,9.54
2023-05-08T10:57:11.912Z,9.50
2023-05-08T10:59:46.728Z,9.45
2023-05-08T11:02:16.838Z,9.39
2023-05-08T11:04:46.266Z,9.36
2023-05-08T11:07:15.835Z,9.32
2023-05-08T11:09:32.120Z,9.29
2023-05-08T11:11:52.698Z,9.26
2023-05-08T11:14:18.098Z,9.20
2023-05-08T11:17:10.774Z,9.17
2023-05-08T11:19:28.750Z,9.12
2023-05-08T11:22:23.393Z,9.06
2023-05-08T11:24:42.722Z,9.04
2023-05-08T11:26:54.799Z,9.01
2023-05-08T11:29:24.030Z,8.98
2023-05-08T11:31:57.450Z,8.93
2023-05-08T11:34:06.782Z,8.91
2023-05-08T11:36:38.274Z,8.87
2023-05-08T11:39:07.988Z,8.84
2023-05-08T11:41:37.391Z,8.81
2023-05-08T11:44:21.432Z,8.77
2023-05-08T11:46:55.139Z,8.73
2023-05-08T11:49:20.406Z,8.68
2023-05-08T11:51:45.576Z,8.68
2023-05-08T11:54:05.190Z,8.67
2023-05-08T11:56:18.115Z,8.66
2023-05-08T11:58:37.821Z,8.63
2023-05-08T12:01:02.678Z,8.60
2023-05-08T12:03:16.368Z,8.58
2023-05-08T12:05:46.425Z,8.56
2023-05-08T12:08:16.727Z,8.54
2023-05-08T12:10:29.327Z,8.52
2023-05-08T12:12:58.676Z,8.47
2023-05-08T12:15:16.526Z,8.43
2023-05-08T12:17:46.431Z,8.40
2023-05-08T12:20:11.215Z,8.35
2023-05-08T12:22:23.725Z,8.33
2023-05-08T12:24:34.613Z,8.31
2023-05-08T12:26:55.143Z,8.29
2023-05-08T12:29:20.613Z,8.26
2023-05-08T12:31:47.812Z,8.25
2023-05-08T12:34:10.522Z,8.24
2023-05-08T12:36:40.627Z,8.23
2023-05-08T12:39:18.236Z,8.23
2023-05-08T12:41:43.178Z,8.23
2023-05-08T12:44:22.151Z,8.22
2023-05-08T12:46:51.241Z,8.20
2023-05-08T12:49:34.553Z,8.18
2023-05-08T12:51:51.743Z,8.15
2023-05-08T12:54:11.075Z,8.14
2023-05-08T12:56:30.217Z,8.14
2023-05-08T12:58:42.649Z,8.15
2023-05-08T13:01:14.546Z,8.16
2023-05-08T13:03:36.738Z,8.17
2023-05-08T13:06:02.081Z,8.19
2023-05-08T13:08:17.362Z,8.20
2023-05-08T13:10:51.228Z,8.21
2023-05-08T13:13:10.803Z,8.22
2023-05-08T13:15:40.862Z,8.22
2023-05-08T13:18:01.204Z,8.24
2023-05-08T13:20:14.808Z,8.26
2023-05-08T13:22:44.308Z,8.28
2023-05-08T13:25:15.179Z,8.29
2023-05-08T13:27:24.786Z,8.34
2023-05-08T13:29:54.227Z,8.37
2023-05-08T13:32:06.780Z,8.41
2023-05-08T13:34:37.765Z,8.45
2023-05-08T13:37:04.438Z,8.49
2023-05-08T13:39:13.789Z,8.52
2023-05-08T13:41:33.220Z,8.57
2023-05-08T13:43:42.864Z,8.60
2023-05-08T13:45:52.546Z,8.64
2023-05-08T13:48:08.439Z,8.70
2023-05-08T13:50:22.567Z,8.74
2023-05-08T13:52:54.698Z,8.79
2023-05-08T13:55:25.332Z,8.83
2023-05-08T13:57:46.030Z,8.89
2023-05-08T13:59:58.641Z,8.95
2023-05-08T14:02:28.381Z,9.01
2023-05-08T14:04:58.389Z,9.07
2023-05-08T14:07:18.824Z,9.12
2023-05-08T14:09:45.211Z,9.20
2023-05-08T14:12:04.871Z,9.25
2023-05-08T14:14:34.622Z,9.32
2023-05-08T14:17:04.208Z,9.37
2023-05-08T14:19:33.514Z,9.47
2023-05-08T14:22:02.880Z,9.54
2023-05-08T14:24:32.188Z,9.62
2023-05-08T14:26:45.214Z,9.72
2023-05-08T14:29:14.482Z,9.83
2023-05-08T14:31:44.165Z,9.95
2023-05-08T14:34:06.454Z,10.04
2023-05-08T14:36:35.807Z,10.14
2023-05-08T14:38:55.114Z,10.19
2023-05-08T14:41:14.366Z,10.30
2023-05-08T14:43:44.307Z,10.42
2023-05-08T14:45:58.554Z,10.50
2023-05-08T14:48:28.734Z,10.62
2023-05-08T14:50:41.446Z,10.77
2023-05-08T14:53:10.908Z,10.94
2023-05-08T14:55:41.025Z,11.10
2023-05-08T14:58:10.498Z,11.22
2023-05-08T15:00:40.137Z,11.28
2023-05-08T15:03:09.749Z,11.30
2023-05-08T15:05:39.414Z,11.35
2023-05-08T15:08:10.036Z,11.37
2023-05-08T15:10:39.834Z,11.41
2023-05-08T15:13:09.203Z,11.45
2023-05-08T15:15:21.519Z,11.46
2023-05-08T15:17:30.961Z,11.48
2023-05-08T15:19:40.412Z,11.52
2023-05-08T15:22:00.745Z,11.52
2023-05-08T15:24:13.712Z,11.52
2023-05-08T15:26:33.097Z,11.53
2023-05-08T15:28:52.825Z,11.54
2023-05-08T15:31:07.434Z,11.63
2023-05-08T15:33:26.094Z,11.71
2023-05-08T15:35:45.661Z,11.80
2023-05-08T15:38:15.099Z,11.88
2023-05-08T15:40:35.928Z,11.91
2023-05-08T15:42:48.760Z,11.97
2023-05-08T15:45:02.333Z,12.02
2023-05-08T15:47:31.794Z,12.09
2023-05-08T15:50:01.197Z,12.13
2023-05-08T15:52:30.665Z,12.19
2023-05-08T15:54:49.382Z,12.25
2023-05-08T15:57:08.744Z,12.30
2023-05-08T15:59:18.401Z,12.33
2023-05-08T16:01:47.879Z,12.34
2023-05-08T16:04:17.660Z,12.36
2023-05-08T16:06:47.333Z,12.36
2023-05-08T16:09:06.726Z,12.38
2023-05-08T16:11:37.043Z,12.41
2023-05-08T16:14:06.506Z,12.45
2023-05-08T16:16:36.126Z,12.50
2023-05-08T16:18:45.690Z,12.53
2023-05-08T16:20:58.753Z,12.59
2023-05-08T16:23:28.201Z,12.64
2023-05-08T16:25:57.462Z,12.67
2023-05-08T16:28:27.363Z,12.70
2023-05-08T16:30:47.880Z,12.73
2023-05-08T16:33:08.235Z,12.74
2023-05-08T16:35:37.421Z,12.75
2023-05-08T16:37:50.757Z,12.79
2023-05-08T16:40:20.508Z,12.84
2023-05-08T16:42:50.417Z,12.88
2023-05-08T16:44:59.838Z,12.92
2023-05-08T16:47:29.304Z,12.98
2023-05-08T16:49:38.753Z,13.03
2023-05-08T16:51:48.251Z,13.10
2023-05-08T16:54:19.825Z,13.15
2023-05-08T16:56:38.151Z,13.17
2023-05-08T16:58:58.624Z,13.20
2023-05-08T17:01:27.958Z,13.23
2023-05-08T17:03:57.527Z,13.28
2023-05-08T17:06:15.998Z,13.34
2023-05-08T17:08:35.519Z,13.41
2023-05-08T17:11:05.008Z,13.49
2023-05-08T17:13:34.798Z,13.54
2023-05-08T17:16:04.315Z,13.54
2023-05-08T17:18:33.895Z,13.62
2023-05-08T17:20:52.759Z,13.70
2023-05-08T17:23:01.986Z,13.77
2023-05-08T17:25:14.453Z,13.87
2023-05-08T17:27:35.145Z,14.01
2023-05-08T17:30:04.500Z,14.16
2023-05-08T17:32:17.276Z,14.30
2023-05-08T17:34:46.625Z,14.47
2023-05-08T17:36:59.068Z,14.62
2023-05-08T17:39:28.391Z,14.78
2023-05-08T17:41:51.992Z,14.93
2023-05-08T17:44:22.196Z,15.12
2023-05-08T17:46:35.401Z,15.22
2023-05-08T17:49:04.768Z,15.33
2023-05-08T17:51:34.297Z,15.54
2023-05-08T17:53:47.214Z,15.76
2023-05-08T17:56:05.575Z,15.99
2023-05-08T17:58:21.669Z,16.27
2023-05-08T18:00:30.982Z,16.51
2023-05-08T18:02:40.515Z,16.75
2023-05-08T18:05:11.372Z,17.00
2023-05-08T18:07:30.989Z,17.27
2023-05-08T18:09:43.164Z,17.53
2023-05-08T18:12:12.634Z,17.81
2023-05-08T18:14:44.612Z,18.06
2023-05-08T18:17:15.903Z,18.32
2023-05-08T18:19:26.366Z,18.54
2023-05-08T18:21:49.184Z,18.77
2023-05-08T18:23:58.783Z,18.93
2023-05-08T18:26:18.677Z,19.14
2023-05-08T18:28:31.062Z,19.32
2023-05-08T18:30:51.280Z,19.43
2023-05-08T18:33:03.734Z,19.53
2023-05-08T18:35:17.129Z,19.62
2023-05-08T18:37:37.458Z,19.69
2023-05-08T18:39:46.959Z,19.81
2023-05-08T18:42:15.095Z,19.89
2023-05-08T18:44:27.662Z,19.88
2023-05-08T18:46:48.545Z,19.93
2023-05-08T18:48:58.157Z,20.12
2023-05-08T18:51:07.600Z,20.32
2023-05-08T18:53:26.516Z,20.46
2023-05-08T18:55:58.943Z,20.65
2023-05-08T18:58:28.848Z,20.88
2023-05-08T19:00:38.273Z,21.10
2023-05-08T19:02:47.479Z,21.26
2023-05-08T19:05:16.973Z,21.40
2023-05-08T19:07:36.861Z,21.51
2023-05-08T19:09:58.186Z,21.61
2023-05-08T19:12:21.681Z,21.68
2023-05-08T19:14:42.537Z,21.83
2023-05-08T19:16:58.386Z,21.91
2023-05-08T19:19:26.011Z,22.04
2023-05-08T19:21:35.419Z,22.11
2023-05-08T19:23:45.036Z,22.13
2023-05-08T19:26:07.215Z,22.15
2023-05-08T19:28:25.794Z,22.19
2023-05-08T19:30:35.193Z,22.19
2023-05-08T19:32:55.613Z,22.27
2023-05-08T19:35:25.082Z,22.37
2023-05-08T19:37:34.448Z,22.36
2023-05-08T19:39:54.201Z,22.26
2023-05-08T19:42:14.204Z,22.21
2023-05-08T19:44:33.184Z,22.20
2023-05-08T19:46:54.346Z,22.29
2023-05-08T19:49:03.593Z,22.23
2023-05-08T19:51:32.764Z,22.08
2023-05-08T19:54:02.087Z,22.12
2023-05-08T19:56:25.474Z,22.19
2023-05-08T19:58:58.122Z,22.25
2023-05-08T20:01:27.988Z,22.30
2023-05-08T20:03:59.044Z,22.30
2023-05-08T20:06:21.218Z,22.42
2023-05-08T20:08:50.695Z,22.56
2023-05-08T20:11:22.371Z,22.58
2023-05-08T20:13:53.976Z,22.61
2023-05-08T20:16:03.514Z,22.62
2023-05-08T20:18:24.888Z,22.49
2023-05-08T20:20:45.408Z,22.36
2023-05-08T20:23:04.787Z,22.35
2023-05-08T20:25:14.318Z,22.36
2023-05-08T20:27:43.888Z,22.29
2023-05-08T20:29:57.861Z,22.17
2023-05-08T20:32:27.456Z,22.05
2023-05-08T20:34:56.836Z,21.97
2023-05-08T20:37:26.355Z,21.85
2023-05-08T20:39:55.970Z,21.77
2023-05-08T20:42:15.333Z,21.70
2023-05-08T20:44:24.825Z,21.67
2023-05-08T20:46:54.462Z,21.66
2023-05-08T20:49:24.611Z,21.64
2023-05-08T20:51:54.129Z,21.59
2023-05-08T20:54:24.154Z,21.63
2023-05-08T20:56:53.419Z,21.70
2023-05-08T20:59:23.843Z,21.86
2023-05-08T21:01:42.889Z,22.01
2023-05-08T21:03:52.209Z,22.15
2023-05-08T21:06:21.502Z,22.27
2023-05-08T21:08:51.508Z,22.31
2023-05-08T21:11:21.519Z,22.37
2023-05-08T21:13:50.854Z,22.46
2023-05-08T21:16:20.707Z,22.55
2023-05-08T21:18:41.100Z,22.62
2023-05-08T21:21:18.317Z,22.71
2023-05-08T21:23:37.526Z,22.72
2023-05-08T21:26:06.968Z,22.61
2023-05-08T21:28:16.775Z,22.52
2023-05-08T21:30:47.895Z,22.44
2023-05-08T21:33:17.484Z,22.25
2023-05-08T21:35:29.731Z,22.13
2023-05-08T21:37:59.334Z,22.05
2023-05-08T21:40:13.120Z,21.99
2023-05-08T21:42:43.201Z,21.85
2023-05-08T21:44:52.712Z,21.69
2023-05-08T21:47:22.810Z,21.63
2023-05-08T21:49:52.044Z,21.64
2023-05-08T21:52:22.856Z,21.64
2023-05-08T21:54:52.809Z,21.62
2023-05-08T21:57:22.238Z,21.60
2023-05-08T21:59:42.758Z,21.64
2023-05-08T22:02:12.478Z,21.74
2023-05-08T22:04:41.877Z,21.88
2023-05-08T22:06:51.175Z,21.99
2023-05-08T22:09:20.508Z,22.09
2023-05-08T22:11:40.875Z,22.08
2023-05-08T22:14:10.143Z,22.11
2023-05-08T22:16:19.756Z,22.07
2023-05-08T22:18:49.236Z,22.06
2023-05-08T22:21:18.661Z,21.97
2023-05-08T22:23:31.742Z,21.94
2023-05-08T22:25:51.227Z,21.90
2023-05-08T22:28:20.565Z,21.85
2023-05-08T22:30:49.929Z,21.82
2023-05-08T22:33:19.359Z,21.74
2023-05-08T22:35:48.746Z,21.68
2023-05-08T22:38:18.220Z,21.66
2023-05-08T22:40:48.077Z,21.66
2023-05-08T22:42:59.064Z,21.66
2023-05-08T22:45:28.860Z,21.65
2023-05-08T22:47:58.538Z,21.67
2023-05-08T22:50:28.100Z,21.62
2023-05-08T22:52:57.432Z,21.61
2023-05-08T22:55:27.614Z,21.57
2023-05-08T22:57:56.993Z,21.53
2023-05-08T23:00:18.265Z,21.50
2023-05-08T23:02:35.047Z,21.46
2023-05-08T23:05:05.137Z,21.41
2023-05-08T23:07:18.246Z,21.37
2023-05-08T23:09:47.779Z,21.37
2023-05-08T23:12:17.226Z,21.25
2023-05-08T23:14:46.391Z,21.18
2023-05-08T23:17:05.943Z,21.08
2023-05-08T23:19:20.055Z,20.93
2023-05-08T23:21:33.149Z,20.78
2023-05-08T23:23:53.179Z,20.63
2023-05-08T23:26:23.286Z,20.43
2023-05-08T23:28:43.732Z,20.11
2023-05-08T23:31:11.799Z,19.78
2023-05-08T23:33:31.794Z,19.56
2023-05-08T23:36:01.642Z,19.33
2023-05-08T23:38:11.257Z,19.16
2023-05-08T23:40:30.706Z,18.98
2023-05-08T23:42:53.156Z,18.79
2023-05-08T23:45:22.707Z,18.66
2023-05-08T23:47:52.009Z,18.51
2023-05-08T23:50:21.831Z,18.36
2023-05-08T23:52:35.010Z,18.27
2023-05-08T23:55:04.602Z,18.10
2023-05-08T23:57:34.360Z,18.05
